AAL853 KLAX-KSEA
Flight info
| Callsign | AAL853 |
|---|---|
| Flight time | 2h 13m |
| Altitude | 38000 |
| Route | LADYJ4 CSTRO SHIMR LKV HAWKZ8 |
| Aircraft | B77W/H-SDE1E2E3FGHIJ2J3J4J5M1RWXY/LB1D1 |
Departure
| Time | 2026-05-06 01:40 |
|---|---|
| Airport | Los Angeles International Airport (KLAX) |
Arrival
| Time | 2026-05-06 03:53 |
|---|---|
| Airport | Seattle–Tacoma International Airport (KSEA) |
| Time | Latitude | Longitude | Altitude | Speed | Heading |
|---|---|---|---|---|---|
| 2026-05-06 01:30 | 33.93945 | -118.39324 | 99 ft | 8 kts | 74° |
| 2026-05-06 01:30 | 33.93956 | -118.39255 | 99 ft | 9 kts | 83° |
| 2026-05-06 01:30 | 33.93962 | -118.39183 | 100 ft | 9 kts | 84° |
| 2026-05-06 01:30 | 33.93967 | -118.39111 | 102 ft | 9 kts | 85° |
| 2026-05-06 01:31 | 33.93972 | -118.39039 | 99 ft | 9 kts | 84° |
| 2026-05-06 01:31 | 33.93980 | -118.38966 | 99 ft | 9 kts | 83° |
| 2026-05-06 01:31 | 33.93985 | -118.38894 | 100 ft | 9 kts | 83° |
| 2026-05-06 01:31 | 33.93996 | -118.38818 | 99 ft | 13 kts | 79° |
| 2026-05-06 01:32 | 33.94017 | -118.38647 | 102 ft | 23 kts | 84° |
| 2026-05-06 01:32 | 33.94035 | -118.38458 | 103 ft | 23 kts | 83° |
| 2026-05-06 01:32 | 33.94054 | -118.38271 | 103 ft | 23 kts | 83° |
| 2026-05-06 01:32 | 33.94065 | -118.38171 | 99 ft | 0 kts | 82° |
| 2026-05-06 01:33 | 33.94065 | -118.38168 | 99 ft | 4 kts | 82° |
| 2026-05-06 01:33 | 33.94068 | -118.38146 | 99 ft | 0 kts | 83° |
| 2026-05-06 01:34 | 33.94068 | -118.38142 | 98 ft | 4 kts | 83° |
| 2026-05-06 01:34 | 33.94074 | -118.38084 | 98 ft | 8 kts | 83° |
| 2026-05-06 01:34 | 33.94059 | -118.38021 | 100 ft | 7 kts | 133° |
| 2026-05-06 01:34 | 33.94054 | -118.38016 | 99 ft | 0 kts | 142° |
| 2026-05-06 01:38 | 33.94047 | -118.38011 | 101 ft | 5 kts | 148° |
| 2026-05-06 01:38 | 33.94006 | -118.38002 | 98 ft | 8 kts | 188° |
| 2026-05-06 01:39 | 33.93987 | -118.38046 | 101 ft | 6 kts | 255° |
| 2026-05-06 01:39 | 33.93959 | -118.38264 | 103 ft | 64 kts | 263° |
| 2026-05-06 01:39 | 33.93873 | -118.39175 | 99 ft | 152 kts | 262° |
| 2026-05-06 01:39 | 33.93597 | -118.40627 | 465 ft | 189 kts | 255° |
| 2026-05-06 01:40 | 33.93369 | -118.42177 | 1571 ft | 179 kts | 264° |
| 2026-05-06 01:40 | 33.93260 | -118.43668 | 2432 ft | 182 kts | 265° |
| 2026-05-06 01:40 | 33.93144 | -118.45246 | 2966 ft | 200 kts | 266° |
| 2026-05-06 01:40 | 33.93023 | -118.47062 | 3185 ft | 234 kts | 266° |
| 2026-05-06 01:41 | 33.92878 | -118.49088 | 3801 ft | 250 kts | 265° |
| 2026-05-06 01:41 | 33.92724 | -118.51201 | 4546 ft | 253 kts | 265° |
| 2026-05-06 01:41 | 33.92559 | -118.53325 | 5003 ft | 262 kts | 265° |
| 2026-05-06 01:41 | 33.92381 | -118.55526 | 5486 ft | 266 kts | 265° |
| 2026-05-06 01:42 | 33.92196 | -118.57764 | 6447 ft | 268 kts | 266° |
| 2026-05-06 01:42 | 33.92020 | -118.60005 | 7358 ft | 269 kts | 269° |
| 2026-05-06 01:42 | 33.92344 | -118.62236 | 7904 ft | 275 kts | 297° |
| 2026-05-06 01:42 | 33.93561 | -118.64002 | 8000 ft | 278 kts | 327° |
| 2026-05-06 01:43 | 33.95208 | -118.65096 | 8015 ft | 273 kts | 332° |
| 2026-05-06 01:43 | 33.96880 | -118.66177 | 8076 ft | 272 kts | 332° |
| 2026-05-06 01:43 | 33.98559 | -118.67255 | 8626 ft | 273 kts | 335° |
| 2026-05-06 01:43 | 34.00425 | -118.67746 | 8589 ft | 276 kts | 3° |
| 2026-05-06 01:44 | 34.02342 | -118.67542 | 9143 ft | 276 kts | 3° |
| 2026-05-06 01:44 | 34.04255 | -118.67408 | 10124 ft | 275 kts | 2° |
| 2026-05-06 01:44 | 34.06186 | -118.67289 | 10744 ft | 288 kts | 2° |
| 2026-05-06 01:44 | 34.08287 | -118.67133 | 10989 ft | 316 kts | 6° |
| 2026-05-06 01:45 | 34.10552 | -118.66685 | 11247 ft | 342 kts | 11° |
| 2026-05-06 01:45 | 34.12944 | -118.66061 | 11852 ft | 359 kts | 12° |
| 2026-05-06 01:45 | 34.15428 | -118.65409 | 12681 ft | 370 kts | 12° |
| 2026-05-06 01:45 | 34.17980 | -118.64773 | 13585 ft | 379 kts | 12° |
| 2026-05-06 01:46 | 34.20592 | -118.64146 | 14486 ft | 385 kts | 12° |
| 2026-05-06 01:46 | 34.23235 | -118.63529 | 15449 ft | 385 kts | 10° |
| 2026-05-06 01:46 | 34.25905 | -118.63402 | 16207 ft | 395 kts | 353° |
| 2026-05-06 01:46 | 34.28614 | -118.64084 | 16932 ft | 402 kts | 348° |
| 2026-05-06 01:47 | 34.31367 | -118.64796 | 17880 ft | 406 kts | 350° |
| 2026-05-06 01:47 | 34.34159 | -118.65469 | 18789 ft | 410 kts | 351° |
| 2026-05-06 01:47 | 34.36983 | -118.66122 | 19628 ft | 415 kts | 351° |
| 2026-05-06 01:47 | 34.39840 | -118.66772 | 20435 ft | 419 kts | 351° |
| 2026-05-06 01:48 | 34.42691 | -118.67420 | 21250 ft | 423 kts | 352° |
| 2026-05-06 01:48 | 34.45613 | -118.68036 | 22070 ft | 427 kts | 353° |
| 2026-05-06 01:48 | 34.48564 | -118.68607 | 22864 ft | 432 kts | 354° |
| 2026-05-06 01:48 | 34.51567 | -118.69174 | 23617 ft | 436 kts | 354° |
| 2026-05-06 01:49 | 34.54544 | -118.69740 | 24251 ft | 440 kts | 354° |
| 2026-05-06 01:49 | 34.57577 | -118.70324 | 24906 ft | 442 kts | 354° |
| 2026-05-06 01:49 | 34.60633 | -118.70919 | 25535 ft | 445 kts | 355° |
| 2026-05-06 01:49 | 34.63695 | -118.71520 | 26240 ft | 446 kts | 356° |
| 2026-05-06 01:50 | 34.66769 | -118.72122 | 26940 ft | 447 kts | 356° |
| 2026-05-06 01:50 | 34.69848 | -118.72725 | 27548 ft | 450 kts | 356° |
| 2026-05-06 01:50 | 34.72895 | -118.73620 | 28051 ft | 464 kts | 345° |
| 2026-05-06 01:50 | 34.75803 | -118.75443 | 28457 ft | 476 kts | 337° |
| 2026-05-06 01:51 | 34.78676 | -118.77509 | 28884 ft | 481 kts | 337° |
| 2026-05-06 01:51 | 34.81570 | -118.79593 | 29383 ft | 483 kts | 337° |
| 2026-05-06 01:51 | 34.84480 | -118.81663 | 29858 ft | 485 kts | 338° |
| 2026-05-06 01:51 | 34.87419 | -118.83725 | 30347 ft | 485 kts | 338° |
| 2026-05-06 01:52 | 34.90319 | -118.85740 | 30838 ft | 483 kts | 338° |
| 2026-05-06 01:52 | 34.93249 | -118.87764 | 31434 ft | 480 kts | 337° |
| 2026-05-06 01:52 | 34.96155 | -118.89767 | 32003 ft | 477 kts | 337° |
| 2026-05-06 01:52 | 34.99040 | -118.91753 | 32562 ft | 475 kts | 336° |
| 2026-05-06 01:53 | 35.01882 | -118.93711 | 33043 ft | 474 kts | 336° |
| 2026-05-06 01:53 | 35.04758 | -118.95693 | 33501 ft | 473 kts | 336° |
| 2026-05-06 01:53 | 35.07622 | -118.97669 | 34057 ft | 469 kts | 336° |
| 2026-05-06 01:53 | 35.10459 | -118.99630 | 34550 ft | 466 kts | 335° |
| 2026-05-06 01:54 | 35.13281 | -119.01582 | 34899 ft | 466 kts | 335° |
| 2026-05-06 01:54 | 35.16076 | -119.03516 | 35190 ft | 467 kts | 335° |
| 2026-05-06 01:54 | 35.18907 | -119.05477 | 35510 ft | 467 kts | 335° |
| 2026-05-06 01:54 | 35.21735 | -119.07439 | 35815 ft | 468 kts | 335° |
| 2026-05-06 01:55 | 35.24559 | -119.09400 | 36104 ft | 468 kts | 335° |
| 2026-05-06 01:55 | 35.27400 | -119.11373 | 36446 ft | 467 kts | 335° |
| 2026-05-06 01:55 | 35.30192 | -119.13315 | 36787 ft | 466 kts | 334° |
| 2026-05-06 01:55 | 35.33016 | -119.15280 | 37120 ft | 466 kts | 334° |
| 2026-05-06 01:56 | 35.35843 | -119.17250 | 37433 ft | 465 kts | 334° |
| 2026-05-06 01:56 | 35.38648 | -119.19205 | 37733 ft | 465 kts | 334° |
| 2026-05-06 01:56 | 35.41465 | -119.21170 | 37957 ft | 466 kts | 334° |
| 2026-05-06 01:56 | 35.44279 | -119.23105 | 37988 ft | 468 kts | 336° |
| 2026-05-06 01:57 | 35.47286 | -119.24558 | 38017 ft | 462 kts | 347° |
| 2026-05-06 01:57 | 35.50400 | -119.25520 | 38014 ft | 459 kts | 350° |
| 2026-05-06 01:57 | 35.56553 | -119.27185 | 38016 ft | 451 kts | 351° |
| 2026-05-06 01:58 | 35.62678 | -119.28880 | 38020 ft | 449 kts | 351° |
| 2026-05-06 01:58 | 35.68767 | -119.30657 | 38032 ft | 449 kts | 350° |
| 2026-05-06 01:59 | 35.74844 | -119.32475 | 38032 ft | 449 kts | 350° |
| 2026-05-06 01:59 | 35.80892 | -119.34297 | 38017 ft | 450 kts | 350° |
| 2026-05-06 02:00 | 35.86988 | -119.36134 | 38034 ft | 451 kts | 350° |
| 2026-05-06 02:00 | 35.93104 | -119.37978 | 38030 ft | 453 kts | 350° |
| 2026-05-06 02:01 | 35.99202 | -119.39818 | 38021 ft | 454 kts | 350° |
| 2026-05-06 02:01 | 36.05372 | -119.41684 | 38027 ft | 455 kts | 350° |
| 2026-05-06 02:02 | 36.11514 | -119.43544 | 38033 ft | 456 kts | 350° |
| 2026-05-06 02:02 | 36.17700 | -119.45420 | 38034 ft | 457 kts | 350° |
| 2026-05-06 02:03 | 36.23872 | -119.47296 | 38031 ft | 456 kts | 351° |
| 2026-05-06 02:03 | 36.30001 | -119.49162 | 38036 ft | 456 kts | 351° |
| 2026-05-06 02:04 | 36.36156 | -119.51038 | 38036 ft | 455 kts | 351° |
| 2026-05-06 02:04 | 36.42285 | -119.52909 | 38037 ft | 454 kts | 351° |
| 2026-05-06 02:05 | 36.48437 | -119.54791 | 38032 ft | 453 kts | 351° |
| 2026-05-06 02:05 | 36.54516 | -119.56652 | 38037 ft | 452 kts | 351° |
| 2026-05-06 02:06 | 36.60635 | -119.58529 | 38030 ft | 451 kts | 351° |
| 2026-05-06 02:06 | 36.66723 | -119.60400 | 38035 ft | 451 kts | 351° |
| 2026-05-06 02:07 | 36.72818 | -119.62276 | 38037 ft | 450 kts | 351° |
| 2026-05-06 02:07 | 36.78874 | -119.64143 | 38037 ft | 450 kts | 351° |
| 2026-05-06 02:08 | 36.84975 | -119.66027 | 38037 ft | 450 kts | 351° |
| 2026-05-06 02:08 | 36.90037 | -119.67592 | 38036 ft | 450 kts | 351° |
| 2026-05-06 02:09 | 36.96127 | -119.69478 | 38036 ft | 450 kts | 351° |
| 2026-05-06 02:09 | 37.02177 | -119.71356 | 38038 ft | 449 kts | 351° |
| 2026-05-06 02:10 | 37.08251 | -119.73244 | 38039 ft | 449 kts | 351° |
| 2026-05-06 02:10 | 37.14316 | -119.75131 | 38040 ft | 448 kts | 351° |
| 2026-05-06 02:11 | 37.20370 | -119.77019 | 38036 ft | 447 kts | 351° |
| 2026-05-06 02:11 | 37.26399 | -119.78902 | 38041 ft | 446 kts | 351° |
| 2026-05-06 02:12 | 37.32393 | -119.80777 | 38045 ft | 445 kts | 351° |
| 2026-05-06 02:12 | 37.38435 | -119.82404 | 38026 ft | 439 kts | 359° |
| 2026-05-06 02:13 | 37.44472 | -119.83130 | 38041 ft | 437 kts | 359° |
| 2026-05-06 02:13 | 37.50533 | -119.83843 | 38047 ft | 437 kts | 359° |
| 2026-05-06 02:14 | 37.56567 | -119.84576 | 38028 ft | 437 kts | 359° |
| 2026-05-06 02:14 | 37.62644 | -119.85330 | 38051 ft | 438 kts | 359° |
| 2026-05-06 02:15 | 37.68722 | -119.86092 | 38041 ft | 439 kts | 359° |
| 2026-05-06 02:15 | 37.74772 | -119.86853 | 38042 ft | 439 kts | 359° |
| 2026-05-06 02:16 | 37.80831 | -119.87615 | 38035 ft | 439 kts | 359° |
| 2026-05-06 02:16 | 37.86923 | -119.88380 | 38027 ft | 439 kts | 359° |
| 2026-05-06 02:17 | 37.93007 | -119.89148 | 38032 ft | 439 kts | 359° |
| 2026-05-06 02:17 | 37.99049 | -119.89912 | 38017 ft | 438 kts | 359° |
| 2026-05-06 02:18 | 38.05135 | -119.90682 | 38019 ft | 438 kts | 359° |
| 2026-05-06 02:18 | 38.11160 | -119.91443 | 38009 ft | 437 kts | 359° |
| 2026-05-06 02:19 | 38.17212 | -119.92213 | 37999 ft | 437 kts | 359° |
| 2026-05-06 02:19 | 38.23252 | -119.92981 | 37998 ft | 435 kts | 359° |
| 2026-05-06 02:20 | 38.32292 | -119.94134 | 38000 ft | 435 kts | 359° |
| 2026-05-06 02:21 | 38.38324 | -119.94902 | 37999 ft | 434 kts | 359° |
| 2026-05-06 02:21 | 38.44334 | -119.95671 | 38011 ft | 434 kts | 359° |
| 2026-05-06 02:22 | 38.50307 | -119.96437 | 38003 ft | 434 kts | 359° |
| 2026-05-06 02:22 | 38.56326 | -119.97208 | 37994 ft | 434 kts | 358° |
| 2026-05-06 02:23 | 38.62296 | -119.97977 | 37996 ft | 433 kts | 358° |
| 2026-05-06 02:23 | 38.68311 | -119.98751 | 38039 ft | 433 kts | 358° |
| 2026-05-06 02:24 | 38.74330 | -119.99526 | 38045 ft | 434 kts | 358° |
| 2026-05-06 02:24 | 38.80318 | -120.00300 | 37990 ft | 434 kts | 358° |
| 2026-05-06 02:25 | 38.86354 | -120.01083 | 37986 ft | 434 kts | 358° |
| 2026-05-06 02:25 | 38.92335 | -120.01857 | 37986 ft | 434 kts | 358° |
| 2026-05-06 02:26 | 38.98369 | -120.02639 | 37962 ft | 434 kts | 358° |
| 2026-05-06 02:26 | 39.04343 | -120.03416 | 37986 ft | 434 kts | 358° |
| 2026-05-06 02:27 | 39.10358 | -120.04201 | 37993 ft | 433 kts | 358° |
| 2026-05-06 02:27 | 39.16346 | -120.04982 | 38012 ft | 433 kts | 358° |
| 2026-05-06 02:28 | 39.22343 | -120.05766 | 38033 ft | 432 kts | 358° |
| 2026-05-06 02:28 | 39.28328 | -120.06550 | 38039 ft | 432 kts | 358° |
| 2026-05-06 02:29 | 39.34327 | -120.07338 | 38041 ft | 432 kts | 358° |
| 2026-05-06 02:29 | 39.40283 | -120.08120 | 37905 ft | 432 kts | 358° |
| 2026-05-06 02:30 | 39.46273 | -120.08908 | 37899 ft | 432 kts | 358° |
| 2026-05-06 02:30 | 39.52257 | -120.09697 | 37901 ft | 431 kts | 358° |
| 2026-05-06 02:31 | 39.58204 | -120.10483 | 37872 ft | 431 kts | 358° |
| 2026-05-06 02:31 | 39.64167 | -120.11271 | 37892 ft | 430 kts | 358° |
| 2026-05-06 02:32 | 39.70097 | -120.12056 | 37888 ft | 430 kts | 358° |
| 2026-05-06 02:32 | 39.76065 | -120.12849 | 37870 ft | 430 kts | 358° |
| 2026-05-06 02:33 | 39.82005 | -120.13640 | 37862 ft | 431 kts | 358° |
| 2026-05-06 02:33 | 39.84023 | -120.13909 | 37864 ft | 431 kts | 358° |
| 2026-05-06 02:34 | 39.93972 | -120.15236 | 37856 ft | 431 kts | 358° |
| 2026-05-06 02:34 | 39.99945 | -120.16034 | 37856 ft | 432 kts | 358° |
| 2026-05-06 02:35 | 40.05904 | -120.16832 | 37845 ft | 433 kts | 358° |
| 2026-05-06 02:35 | 40.11922 | -120.17639 | 37858 ft | 432 kts | 357° |
| 2026-05-06 02:36 | 40.17877 | -120.18441 | 37849 ft | 432 kts | 357° |
| 2026-05-06 02:36 | 40.23856 | -120.19246 | 37863 ft | 431 kts | 357° |
| 2026-05-06 02:37 | 40.29831 | -120.20052 | 37874 ft | 430 kts | 357° |
| 2026-05-06 02:37 | 40.35756 | -120.20853 | 37880 ft | 430 kts | 357° |
| 2026-05-06 02:38 | 40.41727 | -120.21661 | 37892 ft | 429 kts | 357° |
| 2026-05-06 02:38 | 40.47645 | -120.22463 | 37880 ft | 429 kts | 357° |
| 2026-05-06 02:39 | 40.53598 | -120.23272 | 37883 ft | 429 kts | 357° |
| 2026-05-06 02:39 | 40.59543 | -120.24082 | 37866 ft | 429 kts | 357° |
| 2026-05-06 02:40 | 40.65454 | -120.24887 | 37867 ft | 429 kts | 357° |
| 2026-05-06 02:40 | 40.71401 | -120.25700 | 37879 ft | 429 kts | 357° |
| 2026-05-06 02:41 | 40.77316 | -120.26509 | 37879 ft | 429 kts | 357° |
| 2026-05-06 02:41 | 40.83271 | -120.27325 | 37877 ft | 429 kts | 357° |
| 2026-05-06 02:42 | 40.89187 | -120.28137 | 37898 ft | 429 kts | 357° |
| 2026-05-06 02:42 | 40.95148 | -120.28957 | 37895 ft | 429 kts | 357° |
| 2026-05-06 02:43 | 41.01065 | -120.29773 | 37882 ft | 429 kts | 356° |
| 2026-05-06 02:43 | 41.07006 | -120.30593 | 37909 ft | 429 kts | 357° |
| 2026-05-06 02:44 | 41.12957 | -120.31417 | 37904 ft | 429 kts | 357° |
| 2026-05-06 02:44 | 41.18861 | -120.32235 | 37896 ft | 428 kts | 356° |
| 2026-05-06 02:45 | 41.24793 | -120.33058 | 37929 ft | 428 kts | 356° |
| 2026-05-06 02:45 | 41.30724 | -120.33883 | 37953 ft | 427 kts | 356° |
| 2026-05-06 02:46 | 41.36616 | -120.34704 | 37958 ft | 428 kts | 356° |
| 2026-05-06 02:46 | 41.42554 | -120.35533 | 37981 ft | 428 kts | 356° |
| 2026-05-06 02:47 | 41.48464 | -120.36359 | 37917 ft | 428 kts | 356° |
| 2026-05-06 02:47 | 41.54402 | -120.37192 | 37915 ft | 428 kts | 356° |
| 2026-05-06 02:48 | 41.60309 | -120.38021 | 37913 ft | 427 kts | 356° |
| 2026-05-06 02:48 | 41.66211 | -120.38851 | 37925 ft | 427 kts | 356° |
| 2026-05-06 02:49 | 41.72137 | -120.39685 | 37931 ft | 427 kts | 356° |
| 2026-05-06 02:49 | 41.78021 | -120.40515 | 37949 ft | 427 kts | 356° |
| 2026-05-06 02:50 | 41.83923 | -120.41350 | 37942 ft | 427 kts | 356° |
| 2026-05-06 02:50 | 41.89842 | -120.42189 | 37971 ft | 427 kts | 356° |
| 2026-05-06 02:51 | 41.95726 | -120.43024 | 37977 ft | 426 kts | 356° |
| 2026-05-06 02:51 | 42.01648 | -120.43866 | 38008 ft | 427 kts | 356° |
| 2026-05-06 02:52 | 42.07536 | -120.44705 | 38016 ft | 427 kts | 356° |
| 2026-05-06 02:52 | 42.13458 | -120.45550 | 38003 ft | 428 kts | 356° |
| 2026-05-06 02:53 | 42.19389 | -120.46398 | 37972 ft | 429 kts | 355° |
| 2026-05-06 02:53 | 42.25333 | -120.47249 | 37969 ft | 429 kts | 355° |
| 2026-05-06 02:54 | 42.31244 | -120.48099 | 37970 ft | 429 kts | 356° |
| 2026-05-06 02:54 | 42.37195 | -120.48954 | 37966 ft | 429 kts | 355° |
| 2026-05-06 02:55 | 42.43149 | -120.49812 | 37970 ft | 430 kts | 355° |
| 2026-05-06 02:55 | 42.49116 | -120.50764 | 37960 ft | 432 kts | 350° |
| 2026-05-06 02:55 | 42.51934 | -120.52055 | 37968 ft | 434 kts | 339° |
| 2026-05-06 02:56 | 42.53757 | -120.53201 | 37990 ft | 435 kts | 339° |
| 2026-05-06 02:56 | 42.59264 | -120.56653 | 37983 ft | 436 kts | 339° |
| 2026-05-06 02:57 | 42.64803 | -120.60064 | 37967 ft | 436 kts | 339° |
| 2026-05-06 02:57 | 42.70316 | -120.63420 | 37960 ft | 437 kts | 339° |
| 2026-05-06 02:58 | 42.75883 | -120.66804 | 37960 ft | 437 kts | 339° |
| 2026-05-06 02:58 | 42.81403 | -120.70166 | 37963 ft | 436 kts | 339° |
| 2026-05-06 02:59 | 42.86951 | -120.73553 | 37948 ft | 436 kts | 339° |
| 2026-05-06 02:59 | 42.92493 | -120.76943 | 37964 ft | 435 kts | 339° |
| 2026-05-06 03:00 | 42.97991 | -120.80313 | 37963 ft | 436 kts | 339° |
| 2026-05-06 03:00 | 43.03522 | -120.83710 | 37952 ft | 436 kts | 339° |
| 2026-05-06 03:01 | 43.09074 | -120.87125 | 37955 ft | 437 kts | 339° |
| 2026-05-06 03:01 | 43.14592 | -120.90527 | 37958 ft | 437 kts | 339° |
| 2026-05-06 03:02 | 43.20133 | -120.93951 | 37947 ft | 437 kts | 339° |
| 2026-05-06 03:02 | 43.25684 | -120.97387 | 37956 ft | 437 kts | 339° |
| 2026-05-06 03:03 | 43.31215 | -121.00818 | 37967 ft | 438 kts | 339° |
| 2026-05-06 03:03 | 43.36789 | -121.04284 | 37960 ft | 437 kts | 339° |
| 2026-05-06 03:04 | 43.42293 | -121.07712 | 37951 ft | 437 kts | 339° |
| 2026-05-06 03:04 | 43.47837 | -121.11172 | 37961 ft | 436 kts | 338° |
| 2026-05-06 03:05 | 43.53372 | -121.14633 | 37972 ft | 437 kts | 338° |
| 2026-05-06 03:05 | 43.58881 | -121.18085 | 37958 ft | 437 kts | 338° |
| 2026-05-06 03:06 | 43.64418 | -121.21562 | 37968 ft | 437 kts | 338° |
| 2026-05-06 03:06 | 43.69934 | -121.25032 | 37969 ft | 437 kts | 338° |
| 2026-05-06 03:07 | 43.75488 | -121.28534 | 37957 ft | 438 kts | 338° |
| 2026-05-06 03:07 | 43.81046 | -121.32045 | 37984 ft | 439 kts | 338° |
| 2026-05-06 03:08 | 43.86582 | -121.35547 | 37989 ft | 440 kts | 338° |
| 2026-05-06 03:08 | 43.92182 | -121.39097 | 37962 ft | 441 kts | 338° |
| 2026-05-06 03:09 | 43.97728 | -121.42622 | 37991 ft | 441 kts | 338° |
| 2026-05-06 03:09 | 44.03322 | -121.46184 | 38019 ft | 441 kts | 338° |
| 2026-05-06 03:10 | 44.08907 | -121.49748 | 38001 ft | 441 kts | 338° |
| 2026-05-06 03:10 | 44.14455 | -121.53298 | 37999 ft | 440 kts | 338° |
| 2026-05-06 03:11 | 44.20029 | -121.56870 | 37988 ft | 439 kts | 338° |
| 2026-05-06 03:11 | 44.25542 | -121.60410 | 37990 ft | 438 kts | 338° |
| 2026-05-06 03:12 | 44.31095 | -121.63984 | 37982 ft | 438 kts | 338° |
| 2026-05-06 03:12 | 44.36598 | -121.67533 | 37991 ft | 437 kts | 338° |
| 2026-05-06 03:13 | 44.42129 | -121.71106 | 37996 ft | 437 kts | 338° |
| 2026-05-06 03:13 | 44.47658 | -121.74687 | 37982 ft | 437 kts | 337° |
| 2026-05-06 03:14 | 44.53150 | -121.78250 | 37997 ft | 437 kts | 337° |
| 2026-05-06 03:14 | 44.58696 | -121.81857 | 38010 ft | 437 kts | 337° |
| 2026-05-06 03:15 | 44.64191 | -121.85439 | 38025 ft | 438 kts | 337° |
| 2026-05-06 03:15 | 44.69742 | -121.89063 | 38034 ft | 439 kts | 337° |
| 2026-05-06 03:16 | 44.75298 | -121.92698 | 38033 ft | 440 kts | 337° |
| 2026-05-06 03:16 | 44.80847 | -121.96338 | 38036 ft | 442 kts | 337° |
| 2026-05-06 03:17 | 44.86413 | -121.99996 | 38031 ft | 441 kts | 337° |
| 2026-05-06 03:17 | 44.91976 | -122.03660 | 38045 ft | 440 kts | 337° |
| 2026-05-06 03:18 | 44.97484 | -122.07296 | 38053 ft | 439 kts | 337° |
| 2026-05-06 03:18 | 45.03021 | -122.10958 | 38052 ft | 438 kts | 337° |
| 2026-05-06 03:19 | 45.08553 | -122.14626 | 38066 ft | 438 kts | 336° |
| 2026-05-06 03:19 | 45.14043 | -122.18274 | 38060 ft | 438 kts | 336° |
| 2026-05-06 03:20 | 45.22320 | -122.23786 | 38050 ft | 438 kts | 336° |
| 2026-05-06 03:20 | 45.27819 | -122.27459 | 38065 ft | 438 kts | 336° |
| 2026-05-06 03:21 | 45.33360 | -122.31167 | 38063 ft | 439 kts | 336° |
| 2026-05-06 03:21 | 45.38893 | -122.34878 | 38056 ft | 440 kts | 336° |
| 2026-05-06 03:22 | 45.44406 | -122.38584 | 38056 ft | 440 kts | 336° |
| 2026-05-06 03:22 | 45.49967 | -122.42331 | 38054 ft | 441 kts | 336° |
| 2026-05-06 03:23 | 45.55499 | -122.46067 | 38057 ft | 442 kts | 336° |
| 2026-05-06 03:23 | 45.61059 | -122.49829 | 38048 ft | 442 kts | 335° |
| 2026-05-06 03:24 | 45.66626 | -122.53606 | 38056 ft | 442 kts | 335° |
| 2026-05-06 03:24 | 45.72165 | -122.57370 | 38062 ft | 442 kts | 335° |
| 2026-05-06 03:25 | 45.77953 | -122.60167 | 38069 ft | 438 kts | 351° |
| 2026-05-06 03:25 | 45.83980 | -122.61502 | 38076 ft | 440 kts | 351° |
| 2026-05-06 03:26 | 45.90063 | -122.62930 | 37559 ft | 450 kts | 350° |
| 2026-05-06 03:26 | 45.93171 | -122.63693 | 36855 ft | 453 kts | 350° |
| 2026-05-06 03:26 | 45.96276 | -122.64465 | 36080 ft | 451 kts | 350° |
| 2026-05-06 03:27 | 45.99375 | -122.65238 | 35252 ft | 451 kts | 350° |
| 2026-05-06 03:27 | 46.02440 | -122.66003 | 34413 ft | 453 kts | 350° |
| 2026-05-06 03:27 | 46.05563 | -122.66782 | 33424 ft | 456 kts | 350° |
| 2026-05-06 03:27 | 46.08696 | -122.67564 | 32441 ft | 457 kts | 350° |
| 2026-05-06 03:28 | 46.11849 | -122.68306 | 31445 ft | 459 kts | 352° |
| 2026-05-06 03:28 | 46.15025 | -122.68937 | 30518 ft | 460 kts | 353° |
| 2026-05-06 03:28 | 46.18178 | -122.69523 | 29759 ft | 456 kts | 353° |
| 2026-05-06 03:28 | 46.21313 | -122.70110 | 28956 ft | 452 kts | 353° |
| 2026-05-06 03:29 | 46.24413 | -122.70708 | 28246 ft | 447 kts | 352° |
| 2026-05-06 03:29 | 46.27486 | -122.71315 | 27551 ft | 443 kts | 352° |
| 2026-05-06 03:29 | 46.30526 | -122.71921 | 26848 ft | 439 kts | 352° |
| 2026-05-06 03:29 | 46.33510 | -122.72443 | 26179 ft | 435 kts | 355° |
| 2026-05-06 03:30 | 46.36523 | -122.72656 | 25514 ft | 432 kts | 358° |
| 2026-05-06 03:30 | 46.39524 | -122.72710 | 24855 ft | 429 kts | 359° |
| 2026-05-06 03:30 | 46.42511 | -122.72729 | 24182 ft | 427 kts | 359° |
| 2026-05-06 03:30 | 46.45476 | -122.72765 | 23501 ft | 425 kts | 359° |
| 2026-05-06 03:31 | 46.48432 | -122.72829 | 22742 ft | 423 kts | 359° |
| 2026-05-06 03:31 | 46.51324 | -122.72914 | 22080 ft | 419 kts | 358° |
| 2026-05-06 03:31 | 46.54236 | -122.73014 | 21426 ft | 416 kts | 358° |
| 2026-05-06 03:31 | 46.57132 | -122.73118 | 20764 ft | 412 kts | 358° |
| 2026-05-06 03:32 | 46.59998 | -122.73224 | 20133 ft | 409 kts | 358° |
| 2026-05-06 03:32 | 46.62798 | -122.73327 | 19516 ft | 407 kts | 358° |
| 2026-05-06 03:32 | 46.65619 | -122.73430 | 18884 ft | 405 kts | 358° |
| 2026-05-06 03:32 | 46.68426 | -122.73532 | 18553 ft | 395 kts | 358° |
| 2026-05-06 03:33 | 46.71132 | -122.73630 | 18363 ft | 383 kts | 358° |
| 2026-05-06 03:33 | 46.73769 | -122.73725 | 18170 ft | 372 kts | 358° |
| 2026-05-06 03:33 | 46.76281 | -122.73786 | 17989 ft | 356 kts | 2° |
| 2026-05-06 03:33 | 46.78667 | -122.73055 | 17750 ft | 348 kts | 20° |
| 2026-05-06 03:34 | 46.80778 | -122.71326 | 17273 ft | 350 kts | 36° |
| 2026-05-06 03:34 | 46.82653 | -122.69072 | 16855 ft | 348 kts | 38° |
| 2026-05-06 03:34 | 46.84511 | -122.66806 | 16420 ft | 347 kts | 37° |
| 2026-05-06 03:34 | 46.86392 | -122.64585 | 15977 ft | 346 kts | 36° |
| 2026-05-06 03:35 | 46.88297 | -122.62425 | 15543 ft | 345 kts | 35° |
| 2026-05-06 03:35 | 46.90193 | -122.60282 | 15270 ft | 340 kts | 36° |
| 2026-05-06 03:35 | 46.92018 | -122.58207 | 15122 ft | 331 kts | 36° |
| 2026-05-06 03:35 | 46.93843 | -122.56259 | 14918 ft | 319 kts | 27° |
| 2026-05-06 03:36 | 46.95878 | -122.55146 | 14608 ft | 308 kts | 13° |
| 2026-05-06 03:36 | 46.97937 | -122.54333 | 14296 ft | 305 kts | 14° |
| 2026-05-06 03:36 | 46.99945 | -122.53495 | 13975 ft | 302 kts | 14° |
| 2026-05-06 03:36 | 47.01961 | -122.52630 | 13639 ft | 300 kts | 15° |
| 2026-05-06 03:37 | 47.03960 | -122.51761 | 13290 ft | 298 kts | 15° |
| 2026-05-06 03:37 | 47.05941 | -122.50896 | 12971 ft | 295 kts | 15° |
| 2026-05-06 03:37 | 47.07900 | -122.50048 | 12661 ft | 291 kts | 13° |
| 2026-05-06 03:37 | 47.09866 | -122.49521 | 12347 ft | 288 kts | 6° |
| 2026-05-06 03:38 | 47.11847 | -122.49221 | 12068 ft | 285 kts | 5° |
| 2026-05-06 03:38 | 47.13812 | -122.48920 | 11768 ft | 283 kts | 5° |
| 2026-05-06 03:38 | 47.15765 | -122.48589 | 11465 ft | 281 kts | 6° |
| 2026-05-06 03:38 | 47.17718 | -122.48242 | 11170 ft | 282 kts | 6° |
| 2026-05-06 03:39 | 47.19650 | -122.47900 | 10876 ft | 285 kts | 6° |
| 2026-05-06 03:39 | 47.21634 | -122.47593 | 10570 ft | 287 kts | 5° |
| 2026-05-06 03:39 | 47.23623 | -122.47296 | 10277 ft | 287 kts | 5° |
| 2026-05-06 03:39 | 47.25615 | -122.46997 | 9965 ft | 286 kts | 5° |
| 2026-05-06 03:40 | 47.27586 | -122.46699 | 9628 ft | 281 kts | 5° |
| 2026-05-06 03:40 | 47.29499 | -122.46408 | 9309 ft | 274 kts | 5° |
| 2026-05-06 03:40 | 47.31365 | -122.46123 | 9022 ft | 271 kts | 5° |
| 2026-05-06 03:40 | 47.33243 | -122.45836 | 8733 ft | 269 kts | 5° |
| 2026-05-06 03:41 | 47.35095 | -122.45555 | 8445 ft | 266 kts | 5° |
| 2026-05-06 03:41 | 47.36939 | -122.45448 | 8178 ft | 263 kts | 359° |
| 2026-05-06 03:41 | 47.38746 | -122.45470 | 7901 ft | 261 kts | 359° |
| 2026-05-06 03:41 | 47.40560 | -122.45495 | 7624 ft | 259 kts | 359° |
| 2026-05-06 03:42 | 47.42354 | -122.45517 | 7354 ft | 257 kts | 359° |
| 2026-05-06 03:42 | 47.44137 | -122.45527 | 7082 ft | 255 kts | 359° |
| 2026-05-06 03:42 | 47.45903 | -122.45532 | 6814 ft | 253 kts | 359° |
| 2026-05-06 03:42 | 47.47641 | -122.45534 | 6550 ft | 251 kts | 359° |
| 2026-05-06 03:43 | 47.49383 | -122.45536 | 6294 ft | 248 kts | 359° |
| 2026-05-06 03:43 | 47.51102 | -122.45537 | 6016 ft | 246 kts | 359° |
| 2026-05-06 03:43 | 47.52798 | -122.45586 | 5882 ft | 238 kts | 358° |
| 2026-05-06 03:43 | 47.54429 | -122.45658 | 5636 ft | 235 kts | 357° |
| 2026-05-06 03:44 | 47.56081 | -122.45736 | 5202 ft | 242 kts | 357° |
| 2026-05-06 03:44 | 47.57742 | -122.45815 | 5063 ft | 233 kts | 357° |
| 2026-05-06 03:44 | 47.59346 | -122.45895 | 4804 ft | 232 kts | 357° |
| 2026-05-06 03:44 | 47.60970 | -122.45973 | 4526 ft | 232 kts | 357° |
| 2026-05-06 03:45 | 47.62569 | -122.46045 | 4385 ft | 227 kts | 358° |
| 2026-05-06 03:45 | 47.63610 | -122.46086 | 4326 ft | 223 kts | 358° |
| 2026-05-06 03:45 | 47.65640 | -122.46163 | 4092 ft | 219 kts | 358° |
| 2026-05-06 03:45 | 47.67163 | -122.46202 | 3854 ft | 219 kts | 359° |
| 2026-05-06 03:46 | 47.68672 | -122.46159 | 3603 ft | 215 kts | 10° |
| 2026-05-06 03:46 | 47.69628 | -122.45641 | 3309 ft | 220 kts | 34° |
| 2026-05-06 03:46 | 47.70594 | -122.43952 | 3077 ft | 217 kts | 70° |
| 2026-05-06 03:46 | 47.70787 | -122.41776 | 3029 ft | 216 kts | 92° |
| 2026-05-06 03:47 | 47.70693 | -122.39513 | 3014 ft | 222 kts | 94° |
| 2026-05-06 03:47 | 47.70568 | -122.37238 | 3003 ft | 223 kts | 95° |
| 2026-05-06 03:47 | 47.70430 | -122.34957 | 2987 ft | 218 kts | 100° |
| 2026-05-06 03:47 | 47.69813 | -122.32956 | 3000 ft | 217 kts | 135° |
| 2026-05-06 03:48 | 47.68505 | -122.31867 | 3013 ft | 221 kts | 169° |
| 2026-05-06 03:48 | 47.66965 | -122.31664 | 3010 ft | 222 kts | 178° |
| 2026-05-06 03:48 | 47.65472 | -122.31628 | 2999 ft | 209 kts | 180° |
| 2026-05-06 03:48 | 47.64068 | -122.31636 | 3000 ft | 195 kts | 180° |
| 2026-05-06 03:49 | 47.62738 | -122.31650 | 2994 ft | 189 kts | 180° |
| 2026-05-06 03:49 | 47.61419 | -122.31663 | 2997 ft | 189 kts | 180° |
| 2026-05-06 03:49 | 47.60101 | -122.31676 | 2997 ft | 189 kts | 180° |
| 2026-05-06 03:49 | 47.58783 | -122.31687 | 2876 ft | 194 kts | 180° |
| 2026-05-06 03:50 | 47.57431 | -122.31698 | 2609 ft | 193 kts | 180° |
| 2026-05-06 03:50 | 47.56124 | -122.31709 | 2389 ft | 180 kts | 181° |
| 2026-05-06 03:50 | 47.54870 | -122.31719 | 2135 ft | 181 kts | 181° |
| 2026-05-06 03:50 | 47.53616 | -122.31730 | 1887 ft | 179 kts | 181° |
| 2026-05-06 03:51 | 47.52378 | -122.31740 | 1640 ft | 181 kts | 181° |
| 2026-05-06 03:51 | 47.51118 | -122.31750 | 1386 ft | 181 kts | 181° |
| 2026-05-06 03:51 | 47.49857 | -122.31761 | 1146 ft | 180 kts | 181° |
| 2026-05-06 03:51 | 47.48612 | -122.31771 | 895 ft | 173 kts | 180° |
| 2026-05-06 03:52 | 47.47464 | -122.31779 | 664 ft | 158 kts | 180° |
| 2026-05-06 03:52 | 47.46409 | -122.31788 | 469 ft | 149 kts | 180° |
| 2026-05-06 03:52 | 47.45427 | -122.31797 | 406 ft | 133 kts | 181° |
| 2026-05-06 03:52 | 47.44646 | -122.31805 | 388 ft | 87 kts | 181° |
| 2026-05-06 03:53 | 47.44245 | -122.31812 | 376 ft | 47 kts | 181° |
| 2026-05-06 03:53 | 47.44082 | -122.31797 | 371 ft | 12 kts | 140° |
| 2026-05-06 03:53 | 47.44065 | -122.31682 | 375 ft | 12 kts | 90° |
| 2026-05-06 03:53 | 47.44060 | -122.31571 | 375 ft | 10 kts | 105° |
| 2026-05-06 03:54 | 47.44031 | -122.31525 | 377 ft | 5 kts | 141° |
| 2026-05-06 03:54 | 47.44026 | -122.31519 | 374 ft | 2 kts | 141° |
| 2026-05-06 03:54 | 47.43968 | -122.31464 | 373 ft | 12 kts | 147° |
| 2026-05-06 03:54 | 47.43903 | -122.31405 | 374 ft | 12 kts | 151° |
| 2026-05-06 03:55 | 47.43834 | -122.31340 | 376 ft | 11 kts | 133° |
| 2026-05-06 03:55 | 47.43809 | -122.31230 | 379 ft | 11 kts | 94° |
| 2026-05-06 03:55 | 47.43806 | -122.31084 | 376 ft | 16 kts | 90° |
| 2026-05-06 03:55 | 47.43806 | -122.30928 | 379 ft | 11 kts | 90° |
| 2026-05-06 03:56 | 47.43806 | -122.30920 | 379 ft | 0 kts | 90° |
| 2026-05-06 03:57 | 47.43806 | -122.30905 | 379 ft | 3 kts | 90° |
| 2026-05-06 03:57 | 47.43806 | -122.30869 | 380 ft | 7 kts | 90° |
| 2026-05-06 03:57 | 47.43806 | -122.30751 | 381 ft | 12 kts | 90° |
| 2026-05-06 03:57 | 47.43818 | -122.30658 | 383 ft | 9 kts | 50° |
| 2026-05-06 03:58 | 47.43865 | -122.30621 | 385 ft | 5 kts | 19° |